sensor_id;sensor_type;location;lat;lon;timestamp;P1;durP1;ratioP1;P2;durP2;ratioP2
29200;SDS011;16244;51.956;12.980;2023-03-19T00:00:11;30.37;;;19.17;;
29200;SDS011;16244;51.956;12.980;2023-03-19T00:02:40;24.17;;;12.53;;
29200;SDS011;16244;51.956;12.980;2023-03-19T00:05:14;21.63;;;13.53;;
29200;SDS011;16244;51.956;12.980;2023-03-19T00:07:42;24.20;;;15.67;;
29200;SDS011;16244;51.956;12.980;2023-03-19T00:10:10;21.37;;;15.20;;
29200;SDS011;16244;51.956;12.980;2023-03-19T00:12:38;19.20;;;12.97;;
29200;SDS011;16244;51.956;12.980;2023-03-19T00:15:09;23.03;;;15.20;;
29200;SDS011;16244;51.956;12.980;2023-03-19T00:17:40;24.97;;;15.87;;
29200;SDS011;16244;51.956;12.980;2023-03-19T00:20:09;25.60;;;13.80;;
29200;SDS011;16244;51.956;12.980;2023-03-19T00:22:37;19.03;;;14.17;;
29200;SDS011;16244;51.956;12.980;2023-03-19T00:25:05;18.97;;;14.23;;
29200;SDS011;16244;51.956;12.980;2023-03-19T00:27:34;23.17;;;14.93;;
29200;SDS011;16244;51.956;12.980;2023-03-19T00:30:02;23.47;;;14.50;;
29200;SDS011;16244;51.956;12.980;2023-03-19T00:32:30;18.60;;;13.20;;
29200;SDS011;16244;51.956;12.980;2023-03-19T00:35:00;21.43;;;15.03;;
29200;SDS011;16244;51.956;12.980;2023-03-19T00:37:27;21.20;;;14.70;;
29200;SDS011;16244;51.956;12.980;2023-03-19T00:39:55;17.63;;;13.70;;
29200;SDS011;16244;51.956;12.980;2023-03-19T00:42:22;19.87;;;14.20;;
29200;SDS011;16244;51.956;12.980;2023-03-19T00:44:50;19.27;;;14.10;;
29200;SDS011;16244;51.956;12.980;2023-03-19T00:47:17;24.67;;;13.53;;
29200;SDS011;16244;51.956;12.980;2023-03-19T00:49:45;19.60;;;14.57;;
29200;SDS011;16244;51.956;12.980;2023-03-19T00:52:13;19.63;;;13.23;;
29200;SDS011;16244;51.956;12.980;2023-03-19T00:54:41;18.50;;;14.07;;
29200;SDS011;16244;51.956;12.980;2023-03-19T00:57:09;21.10;;;14.30;;
29200;SDS011;16244;51.956;12.980;2023-03-19T00:59:36;28.03;;;15.57;;
29200;SDS011;16244;51.956;12.980;2023-03-19T01:02:04;20.73;;;13.40;;
29200;SDS011;16244;51.956;12.980;2023-03-19T01:04:31;28.83;;;14.30;;
29200;SDS011;16244;51.956;12.980;2023-03-19T01:06:59;18.93;;;14.40;;
29200;SDS011;16244;51.956;12.980;2023-03-19T01:09:28;24.67;;;15.07;;
29200;SDS011;16244;51.956;12.980;2023-03-19T01:11:55;19.60;;;14.50;;
29200;SDS011;16244;51.956;12.980;2023-03-19T01:14:23;26.93;;;14.73;;
29200;SDS011;16244;51.956;12.980;2023-03-19T01:16:50;16.60;;;14.07;;
29200;SDS011;16244;51.956;12.980;2023-03-19T01:19:18;27.43;;;14.80;;
29200;SDS011;16244;51.956;12.980;2023-03-19T01:21:45;26.83;;;13.77;;
29200;SDS011;16244;51.956;12.980;2023-03-19T01:24:14;22.43;;;14.27;;
29200;SDS011;16244;51.956;12.980;2023-03-19T01:26:43;21.63;;;13.93;;
29200;SDS011;16244;51.956;12.980;2023-03-19T01:29:11;22.50;;;14.07;;
29200;SDS011;16244;51.956;12.980;2023-03-19T01:31:38;16.80;;;12.40;;
29200;SDS011;16244;51.956;12.980;2023-03-19T01:34:11;21.03;;;13.83;;
29200;SDS011;16244;51.956;12.980;2023-03-19T01:36:43;23.70;;;15.00;;
29200;SDS011;16244;51.956;12.980;2023-03-19T01:39:11;20.33;;;13.87;;
29200;SDS011;16244;51.956;12.980;2023-03-19T01:41:39;20.20;;;13.33;;
29200;SDS011;16244;51.956;12.980;2023-03-19T01:47:00;17.30;;;13.47;;
29200;SDS011;16244;51.956;12.980;2023-03-19T01:49:32;17.07;;;12.80;;
29200;SDS011;16244;51.956;12.980;2023-03-19T01:52:01;20.20;;;14.00;;
29200;SDS011;16244;51.956;12.980;2023-03-19T01:54:32;18.97;;;14.50;;
29200;SDS011;16244;51.956;12.980;2023-03-19T01:57:02;23.97;;;14.63;;
29200;SDS011;16244;51.956;12.980;2023-03-19T01:59:34;18.40;;;13.60;;
29200;SDS011;16244;51.956;12.980;2023-03-19T02:02:05;22.57;;;14.70;;
29200;SDS011;16244;51.956;12.980;2023-03-19T02:04:37;22.20;;;13.67;;
29200;SDS011;16244;51.956;12.980;2023-03-19T02:07:07;20.60;;;13.70;;
29200;SDS011;16244;51.956;12.980;2023-03-19T02:09:37;25.70;;;14.67;;
29200;SDS011;16244;51.956;12.980;2023-03-19T02:12:06;24.60;;;14.43;;
29200;SDS011;16244;51.956;12.980;2023-03-19T02:14:34;22.07;;;14.17;;
29200;SDS011;16244;51.956;12.980;2023-03-19T02:17:02;24.23;;;14.30;;
29200;SDS011;16244;51.956;12.980;2023-03-19T02:19:34;22.90;;;14.17;;
29200;SDS011;16244;51.956;12.980;2023-03-19T02:22:06;22.83;;;14.00;;
29200;SDS011;16244;51.956;12.980;2023-03-19T02:24:38;20.47;;;13.60;;
29200;SDS011;16244;51.956;12.980;2023-03-19T02:27:12;19.60;;;13.83;;
29200;SDS011;16244;51.956;12.980;2023-03-19T02:29:39;22.33;;;14.23;;
29200;SDS011;16244;51.956;12.980;2023-03-19T02:32:07;14.63;;;12.30;;
29200;SDS011;16244;51.956;12.980;2023-03-19T02:34:36;22.83;;;13.80;;
29200;SDS011;16244;51.956;12.980;2023-03-19T02:37:08;17.13;;;12.80;;
29200;SDS011;16244;51.956;12.980;2023-03-19T02:39:43;18.80;;;13.03;;
29200;SDS011;16244;51.956;12.980;2023-03-19T02:42:18;16.80;;;13.40;;
29200;SDS011;16244;51.956;12.980;2023-03-19T02:44:48;20.37;;;13.17;;
29200;SDS011;16244;51.956;12.980;2023-03-19T02:47:18;19.17;;;13.17;;
29200;SDS011;16244;51.956;12.980;2023-03-19T02:49:46;17.47;;;12.33;;
29200;SDS011;16244;51.956;12.980;2023-03-19T02:52:13;18.37;;;12.80;;
29200;SDS011;16244;51.956;12.980;2023-03-19T02:54:41;22.70;;;13.40;;
29200;SDS011;16244;51.956;12.980;2023-03-19T02:57:09;15.77;;;12.03;;
29200;SDS011;16244;51.956;12.980;2023-03-19T02:59:38;23.17;;;14.10;;
29200;SDS011;16244;51.956;12.980;2023-03-19T03:02:05;16.17;;;12.33;;
29200;SDS011;16244;51.956;12.980;2023-03-19T03:04:33;18.30;;;12.37;;
29200;SDS011;16244;51.956;12.980;2023-03-19T03:07:01;17.03;;;13.27;;
29200;SDS011;16244;51.956;12.980;2023-03-19T03:09:29;25.57;;;13.00;;
29200;SDS011;16244;51.956;12.980;2023-03-19T03:11:57;16.20;;;12.87;;
29200;SDS011;16244;51.956;12.980;2023-03-19T03:14:24;20.23;;;13.10;;
29200;SDS011;16244;51.956;12.980;2023-03-19T03:16:53;16.00;;;12.87;;
29200;SDS011;16244;51.956;12.980;2023-03-19T03:19:22;17.07;;;11.97;;
29200;SDS011;16244;51.956;12.980;2023-03-19T03:21:49;15.93;;;12.00;;
29200;SDS011;16244;51.956;12.980;2023-03-19T03:24:17;17.33;;;11.90;;
29200;SDS011;16244;51.956;12.980;2023-03-19T03:26:44;19.83;;;14.07;;
29200;SDS011;16244;51.956;12.980;2023-03-19T03:29:12;19.03;;;12.90;;
29200;SDS011;16244;51.956;12.980;2023-03-19T03:31:39;19.03;;;13.50;;
29200;SDS011;16244;51.956;12.980;2023-03-19T03:34:08;17.27;;;13.70;;
29200;SDS011;16244;51.956;12.980;2023-03-19T03:36:36;16.47;;;13.20;;
29200;SDS011;16244;51.956;12.980;2023-03-19T03:39:03;20.53;;;13.87;;
29200;SDS011;16244;51.956;12.980;2023-03-19T03:41:31;19.67;;;13.30;;
29200;SDS011;16244;51.956;12.980;2023-03-19T03:43:58;16.13;;;12.50;;
29200;SDS011;16244;51.956;12.980;2023-03-19T03:46:26;19.83;;;12.80;;
29200;SDS011;16244;51.956;12.980;2023-03-19T03:48:54;16.23;;;13.20;;
29200;SDS011;16244;51.956;12.980;2023-03-19T03:51:22;20.93;;;12.50;;
29200;SDS011;16244;51.956;12.980;2023-03-19T03:53:50;19.07;;;11.63;;
29200;SDS011;16244;51.956;12.980;2023-03-19T03:56:17;16.20;;;12.13;;
29200;SDS011;16244;51.956;12.980;2023-03-19T03:58:45;17.13;;;12.40;;
29200;SDS011;16244;51.956;12.980;2023-03-19T04:01:12;17.67;;;12.03;;
29200;SDS011;16244;51.956;12.980;2023-03-19T04:03:41;19.90;;;12.30;;
29200;SDS011;16244;51.956;12.980;2023-03-19T04:06:09;17.73;;;13.10;;
29200;SDS011;16244;51.956;12.980;2023-03-19T04:08:41;19.20;;;13.30;;
29200;SDS011;16244;51.956;12.980;2023-03-19T04:11:09;17.67;;;11.80;;
29200;SDS011;16244;51.956;12.980;2023-03-19T04:13:37;16.00;;;12.70;;
29200;SDS011;16244;51.956;12.980;2023-03-19T04:16:05;23.00;;;13.33;;
29200;SDS011;16244;51.956;12.980;2023-03-19T04:18:35;17.53;;;12.83;;
29200;SDS011;16244;51.956;12.980;2023-03-19T04:21:06;22.47;;;13.90;;
29200;SDS011;16244;51.956;12.980;2023-03-19T04:23:37;26.60;;;13.97;;
29200;SDS011;16244;51.956;12.980;2023-03-19T04:26:06;20.90;;;13.27;;
29200;SDS011;16244;51.956;12.980;2023-03-19T04:28:34;39.30;;;13.73;;
29200;SDS011;16244;51.956;12.980;2023-03-19T04:31:02;18.53;;;12.20;;
29200;SDS011;16244;51.956;12.980;2023-03-19T04:33:32;20.47;;;14.00;;
29200;SDS011;16244;51.956;12.980;2023-03-19T04:36:00;25.23;;;14.60;;
29200;SDS011;16244;51.956;12.980;2023-03-19T04:38:28;20.60;;;13.63;;
29200;SDS011;16244;51.956;12.980;2023-03-19T04:40:56;18.20;;;13.23;;
29200;SDS011;16244;51.956;12.980;2023-03-19T04:43:26;14.97;;;13.00;;
29200;SDS011;16244;51.956;12.980;2023-03-19T04:45:53;23.33;;;13.43;;
29200;SDS011;16244;51.956;12.980;2023-03-19T04:48:21;19.10;;;12.17;;
29200;SDS011;16244;51.956;12.980;2023-03-19T04:50:48;25.00;;;12.20;;
29200;SDS011;16244;51.956;12.980;2023-03-19T04:53:18;16.33;;;13.00;;
29200;SDS011;16244;51.956;12.980;2023-03-19T04:55:46;17.57;;;12.00;;
29200;SDS011;16244;51.956;12.980;2023-03-19T04:58:13;18.20;;;13.03;;
29200;SDS011;16244;51.956;12.980;2023-03-19T05:00:42;17.00;;;11.50;;
29200;SDS011;16244;51.956;12.980;2023-03-19T05:03:11;22.40;;;12.57;;
29200;SDS011;16244;51.956;12.980;2023-03-19T05:05:39;16.60;;;12.40;;
29200;SDS011;16244;51.956;12.980;2023-03-19T05:08:07;20.17;;;13.00;;
29200;SDS011;16244;51.956;12.980;2023-03-19T05:10:34;17.87;;;12.20;;
29200;SDS011;16244;51.956;12.980;2023-03-19T05:13:02;18.90;;;13.17;;
29200;SDS011;16244;51.956;12.980;2023-03-19T05:15:30;14.37;;;10.10;;
29200;SDS011;16244;51.956;12.980;2023-03-19T05:17:59;23.77;;;12.20;;
29200;SDS011;16244;51.956;12.980;2023-03-19T05:20:26;22.27;;;12.77;;
29200;SDS011;16244;51.956;12.980;2023-03-19T05:22:54;17.70;;;12.20;;
29200;SDS011;16244;51.956;12.980;2023-03-19T05:25:22;18.83;;;12.50;;
29200;SDS011;16244;51.956;12.980;2023-03-19T05:27:49;17.70;;;12.90;;
29200;SDS011;16244;51.956;12.980;2023-03-19T05:30:17;16.30;;;11.73;;
29200;SDS011;16244;51.956;12.980;2023-03-19T05:32:44;17.13;;;12.03;;
29200;SDS011;16244;51.956;12.980;2023-03-19T05:35:13;16.17;;;11.67;;
29200;SDS011;16244;51.956;12.980;2023-03-19T05:37:42;22.03;;;13.70;;
29200;SDS011;16244;51.956;12.980;2023-03-19T05:40:10;16.90;;;13.00;;
29200;SDS011;16244;51.956;12.980;2023-03-19T05:42:38;18.10;;;12.30;;
29200;SDS011;16244;51.956;12.980;2023-03-19T05:45:06;20.53;;;13.40;;
29200;SDS011;16244;51.956;12.980;2023-03-19T05:47:34;19.00;;;13.50;;
29200;SDS011;16244;51.956;12.980;2023-03-19T05:50:02;14.90;;;11.67;;
29200;SDS011;16244;51.956;12.980;2023-03-19T05:52:31;20.83;;;13.70;;
29200;SDS011;16244;51.956;12.980;2023-03-19T05:54:59;19.23;;;11.97;;
29200;SDS011;16244;51.956;12.980;2023-03-19T05:57:26;14.90;;;12.60;;
29200;SDS011;16244;51.956;12.980;2023-03-19T05:59:54;18.73;;;13.20;;
29200;SDS011;16244;51.956;12.980;2023-03-19T06:02:21;18.80;;;13.03;;
29200;SDS011;16244;51.956;12.980;2023-03-19T06:04:49;22.70;;;13.73;;
29200;SDS011;16244;51.956;12.980;2023-03-19T06:07:17;21.40;;;14.07;;
29200;SDS011;16244;51.956;12.980;2023-03-19T06:09:45;17.40;;;11.40;;
29200;SDS011;16244;51.956;12.980;2023-03-19T06:12:13;16.67;;;11.97;;
29200;SDS011;16244;51.956;12.980;2023-03-19T06:14:41;23.27;;;13.43;;
29200;SDS011;16244;51.956;12.980;2023-03-19T06:17:08;16.73;;;13.73;;
29200;SDS011;16244;51.956;12.980;2023-03-19T06:19:36;22.57;;;15.00;;
29200;SDS011;16244;51.956;12.980;2023-03-19T06:22:03;19.30;;;13.60;;
29200;SDS011;16244;51.956;12.980;2023-03-19T06:24:32;20.63;;;13.80;;
29200;SDS011;16244;51.956;12.980;2023-03-19T06:27:04;20.73;;;13.30;;
29200;SDS011;16244;51.956;12.980;2023-03-19T06:29:32;24.90;;;12.63;;
29200;SDS011;16244;51.956;12.980;2023-03-19T06:32:00;23.20;;;14.10;;
29200;SDS011;16244;51.956;12.980;2023-03-19T06:34:28;20.20;;;13.67;;
29200;SDS011;16244;51.956;12.980;2023-03-19T06:36:58;21.30;;;13.60;;
29200;SDS011;16244;51.956;12.980;2023-03-19T06:39:30;22.70;;;14.73;;
29200;SDS011;16244;51.956;12.980;2023-03-19T06:42:05;23.90;;;14.00;;
29200;SDS011;16244;51.956;12.980;2023-03-19T06:44:36;26.47;;;17.63;;
29200;SDS011;16244;51.956;12.980;2023-03-19T06:47:06;18.37;;;13.23;;
29200;SDS011;16244;51.956;12.980;2023-03-19T06:49:36;21.03;;;14.57;;
29200;SDS011;16244;51.956;12.980;2023-03-19T06:52:04;21.23;;;14.20;;
29200;SDS011;16244;51.956;12.980;2023-03-19T06:54:31;24.30;;;13.83;;
29200;SDS011;16244;51.956;12.980;2023-03-19T06:57:00;18.93;;;14.23;;
29200;SDS011;16244;51.956;12.980;2023-03-19T06:59:34;25.43;;;15.30;;
29200;SDS011;16244;51.956;12.980;2023-03-19T07:02:05;18.70;;;13.10;;
29200;SDS011;16244;51.956;12.980;2023-03-19T07:04:37;18.87;;;14.10;;
29200;SDS011;16244;51.956;12.980;2023-03-19T07:07:07;21.83;;;14.07;;
29200;SDS011;16244;51.956;12.980;2023-03-19T07:09:35;21.10;;;13.80;;
29200;SDS011;16244;51.956;12.980;2023-03-19T07:12:03;18.47;;;13.33;;
29200;SDS011;16244;51.956;12.980;2023-03-19T07:14:30;20.27;;;14.17;;
29200;SDS011;16244;51.956;12.980;2023-03-19T07:16:59;17.27;;;12.10;;
29200;SDS011;16244;51.956;12.980;2023-03-19T07:19:27;20.53;;;13.90;;
29200;SDS011;16244;51.956;12.980;2023-03-19T07:21:54;20.67;;;14.07;;
29200;SDS011;16244;51.956;12.980;2023-03-19T07:24:22;18.93;;;13.07;;
29200;SDS011;16244;51.956;12.980;2023-03-19T07:26:49;19.63;;;12.30;;
29200;SDS011;16244;51.956;12.980;2023-03-19T07:29:17;20.00;;;13.47;;
29200;SDS011;16244;51.956;12.980;2023-03-19T07:31:44;19.37;;;14.20;;
29200;SDS011;16244;51.956;12.980;2023-03-19T07:34:13;21.30;;;15.27;;
29200;SDS011;16244;51.956;12.980;2023-03-19T07:36:40;23.33;;;15.60;;
29200;SDS011;16244;51.956;12.980;2023-03-19T07:39:08;27.87;;;16.47;;
29200;SDS011;16244;51.956;12.980;2023-03-19T07:41:35;34.50;;;21.97;;
29200;SDS011;16244;51.956;12.980;2023-03-19T07:44:03;27.00;;;18.53;;
29200;SDS011;16244;51.956;12.980;2023-03-19T07:46:31;23.27;;;14.97;;
29200;SDS011;16244;51.956;12.980;2023-03-19T07:48:58;22.00;;;17.17;;
29200;SDS011;16244;51.956;12.980;2023-03-19T07:51:27;29.50;;;17.97;;
29200;SDS011;16244;51.956;12.980;2023-03-19T07:53:55;32.00;;;20.00;;
29200;SDS011;16244;51.956;12.980;2023-03-19T07:56:22;26.27;;;16.30;;
29200;SDS011;16244;51.956;12.980;2023-03-19T07:58:50;26.03;;;17.10;;
29200;SDS011;16244;51.956;12.980;2023-03-19T08:01:18;23.73;;;16.13;;
29200;SDS011;16244;51.956;12.980;2023-03-19T08:03:45;28.20;;;17.40;;
29200;SDS011;16244;51.956;12.980;2023-03-19T08:06:14;31.77;;;19.87;;
29200;SDS011;16244;51.956;12.980;2023-03-19T08:08:42;24.03;;;17.20;;
29200;SDS011;16244;51.956;12.980;2023-03-19T08:11:10;23.47;;;17.60;;
29200;SDS011;16244;51.956;12.980;2023-03-19T08:13:37;22.03;;;15.13;;
29200;SDS011;16244;51.956;12.980;2023-03-19T08:16:05;23.60;;;15.00;;
29200;SDS011;16244;51.956;12.980;2023-03-19T08:18:33;20.20;;;15.10;;
29200;SDS011;16244;51.956;12.980;2023-03-19T08:21:00;18.43;;;15.00;;
29200;SDS011;16244;51.956;12.980;2023-03-19T08:23:28;17.37;;;13.20;;
29200;SDS011;16244;51.956;12.980;2023-03-19T08:25:58;20.20;;;13.43;;
29200;SDS011;16244;51.956;12.980;2023-03-19T08:28:26;19.53;;;13.03;;
29200;SDS011;16244;51.956;12.980;2023-03-19T08:30:53;18.13;;;12.20;;
29200;SDS011;16244;51.956;12.980;2023-03-19T08:33:21;16.33;;;12.87;;
29200;SDS011;16244;51.956;12.980;2023-03-19T08:35:49;15.93;;;11.77;;
29200;SDS011;16244;51.956;12.980;2023-03-19T08:38:17;21.80;;;12.10;;
29200;SDS011;16244;51.956;12.980;2023-03-19T08:40:44;21.27;;;13.03;;
29200;SDS011;16244;51.956;12.980;2023-03-19T08:43:14;20.03;;;11.57;;
29200;SDS011;16244;51.956;12.980;2023-03-19T08:45:41;16.87;;;11.43;;
29200;SDS011;16244;51.956;12.980;2023-03-19T08:48:09;17.43;;;11.90;;
29200;SDS011;16244;51.956;12.980;2023-03-19T08:50:36;17.53;;;11.47;;
29200;SDS011;16244;51.956;12.980;2023-03-19T08:53:04;18.90;;;12.20;;
29200;SDS011;16244;51.956;12.980;2023-03-19T08:55:31;17.60;;;12.43;;
29200;SDS011;16244;51.956;12.980;2023-03-19T08:57:59;12.90;;;10.77;;
29200;SDS011;16244;51.956;12.980;2023-03-19T09:00:28;14.30;;;11.10;;
29200;SDS011;16244;51.956;12.980;2023-03-19T09:02:55;15.97;;;12.43;;
29200;SDS011;16244;51.956;12.980;2023-03-19T09:05:23;14.83;;;11.37;;
29200;SDS011;16244;51.956;12.980;2023-03-19T09:07:51;18.23;;;12.43;;
29200;SDS011;16244;51.956;12.980;2023-03-19T09:10:19;18.03;;;11.40;;
29200;SDS011;16244;51.956;12.980;2023-03-19T09:12:46;15.67;;;11.40;;
29200;SDS011;16244;51.956;12.980;2023-03-19T09:15:13;12.40;;;11.10;;
29200;SDS011;16244;51.956;12.980;2023-03-19T09:17:43;19.50;;;10.83;;
29200;SDS011;16244;51.956;12.980;2023-03-19T09:20:10;15.30;;;11.60;;
29200;SDS011;16244;51.956;12.980;2023-03-19T09:22:39;11.17;;;10.07;;
29200;SDS011;16244;51.956;12.980;2023-03-19T09:25:07;15.83;;;10.97;;
29200;SDS011;16244;51.956;12.980;2023-03-19T09:27:35;15.97;;;11.73;;
29200;SDS011;16244;51.956;12.980;2023-03-19T09:30:04;16.10;;;11.43;;
29200;SDS011;16244;51.956;12.980;2023-03-19T09:32:34;16.13;;;11.33;;
29200;SDS011;16244;51.956;12.980;2023-03-19T09:35:03;18.87;;;12.30;;
29200;SDS011;16244;51.956;12.980;2023-03-19T09:37:32;15.60;;;11.00;;
29200;SDS011;16244;51.956;12.980;2023-03-19T09:39:59;13.60;;;11.70;;
29200;SDS011;16244;51.956;12.980;2023-03-19T09:42:30;15.40;;;12.17;;
29200;SDS011;16244;51.956;12.980;2023-03-19T09:45:12;13.07;;;11.27;;
29200;SDS011;16244;51.956;12.980;2023-03-19T09:47:41;21.27;;;12.57;;
29200;SDS011;16244;51.956;12.980;2023-03-19T09:50:13;15.13;;;11.70;;
29200;SDS011;16244;51.956;12.980;2023-03-19T09:52:43;13.20;;;10.90;;
29200;SDS011;16244;51.956;12.980;2023-03-19T09:55:20;18.53;;;11.87;;
29200;SDS011;16244;51.956;12.980;2023-03-19T09:57:57;13.20;;;10.10;;
29200;SDS011;16244;51.956;12.980;2023-03-19T10:00:26;14.57;;;12.23;;
29200;SDS011;16244;51.956;12.980;2023-03-19T10:02:57;16.67;;;11.50;;
29200;SDS011;16244;51.956;12.980;2023-03-19T10:05:34;12.40;;;10.83;;
29200;SDS011;16244;51.956;12.980;2023-03-19T10:08:14;15.33;;;11.30;;
29200;SDS011;16244;51.956;12.980;2023-03-19T10:10:56;18.47;;;11.07;;
29200;SDS011;16244;51.956;12.980;2023-03-19T10:13:45;15.57;;;10.90;;
29200;SDS011;16244;51.956;12.980;2023-03-19T10:16:19;16.13;;;11.77;;
29200;SDS011;16244;51.956;12.980;2023-03-19T10:18:50;22.20;;;11.83;;
29200;SDS011;16244;51.956;12.980;2023-03-19T10:21:23;19.10;;;12.00;;
29200;SDS011;16244;51.956;12.980;2023-03-19T10:23:56;12.80;;;10.63;;
29200;SDS011;16244;51.956;12.980;2023-03-19T10:26:30;15.30;;;10.97;;
29200;SDS011;16244;51.956;12.980;2023-03-19T10:29:04;14.87;;;11.20;;
29200;SDS011;16244;51.956;12.980;2023-03-19T10:31:38;15.10;;;11.40;;
29200;SDS011;16244;51.956;12.980;2023-03-19T10:34:14;17.03;;;11.17;;
29200;SDS011;16244;51.956;12.980;2023-03-19T10:36:50;15.63;;;11.53;;
29200;SDS011;16244;51.956;12.980;2023-03-19T10:39:26;12.50;;;11.20;;
29200;SDS011;16244;51.956;12.980;2023-03-19T10:41:56;17.73;;;12.50;;
29200;SDS011;16244;51.956;12.980;2023-03-19T10:44:33;14.60;;;12.00;;
29200;SDS011;16244;51.956;12.980;2023-03-19T10:47:09;13.43;;;10.77;;
29200;SDS011;16244;51.956;12.980;2023-03-19T10:49:38;11.37;;;10.23;;
29200;SDS011;16244;51.956;12.980;2023-03-19T10:52:12;15.93;;;11.20;;
29200;SDS011;16244;51.956;12.980;2023-03-19T10:54:50;13.43;;;9.90;;
29200;SDS011;16244;51.956;12.980;2023-03-19T10:57:22;12.73;;;10.50;;
29200;SDS011;16244;51.956;12.980;2023-03-19T10:59:52;14.43;;;11.20;;
29200;SDS011;16244;51.956;12.980;2023-03-19T11:02:20;13.87;;;9.97;;
29200;SDS011;16244;51.956;12.980;2023-03-19T11:05:04;13.37;;;10.37;;
29200;SDS011;16244;51.956;12.980;2023-03-19T11:07:36;12.40;;;9.63;;
29200;SDS011;16244;51.956;12.980;2023-03-19T11:10:04;14.47;;;10.53;;
29200;SDS011;16244;51.956;12.980;2023-03-19T11:12:39;12.37;;;9.60;;
29200;SDS011;16244;51.956;12.980;2023-03-19T11:15:13;13.00;;;9.57;;
29200;SDS011;16244;51.956;12.980;2023-03-19T11:17:47;11.80;;;10.10;;
29200;SDS011;16244;51.956;12.980;2023-03-19T11:20:20;14.07;;;9.83;;
29200;SDS011;16244;51.956;12.980;2023-03-19T11:22:51;11.47;;;10.10;;
29200;SDS011;16244;51.956;12.980;2023-03-19T11:25:22;18.00;;;10.00;;
29200;SDS011;16244;51.956;12.980;2023-03-19T11:27:58;16.03;;;11.70;;
29200;SDS011;16244;51.956;12.980;2023-03-19T11:30:27;18.27;;;12.17;;
29200;SDS011;16244;51.956;12.980;2023-03-19T11:33:11;19.33;;;14.67;;
29200;SDS011;16244;51.956;12.980;2023-03-19T11:35:50;23.17;;;12.03;;
29200;SDS011;16244;51.956;12.980;2023-03-19T11:38:29;12.37;;;10.30;;
29200;SDS011;16244;51.956;12.980;2023-03-19T11:41:07;12.10;;;9.73;;
29200;SDS011;16244;51.956;12.980;2023-03-19T11:43:43;14.43;;;9.73;;
29200;SDS011;16244;51.956;12.980;2023-03-19T11:46:19;15.80;;;10.50;;
29200;SDS011;16244;51.956;12.980;2023-03-19T11:49:10;10.80;;;9.30;;
29200;SDS011;16244;51.956;12.980;2023-03-19T11:51:58;9.77;;;8.80;;
29200;SDS011;16244;51.956;12.980;2023-03-19T11:54:32;9.37;;;8.40;;
29200;SDS011;16244;51.956;12.980;2023-03-19T11:57:07;14.90;;;8.60;;
29200;SDS011;16244;51.956;12.980;2023-03-19T11:59:41;9.90;;;8.47;;
29200;SDS011;16244;51.956;12.980;2023-03-19T12:02:23;21.87;;;11.43;;
29200;SDS011;16244;51.956;12.980;2023-03-19T12:05:15;15.73;;;9.30;;
29200;SDS011;16244;51.956;12.980;2023-03-19T12:07:50;12.17;;;9.17;;
29200;SDS011;16244;51.956;12.980;2023-03-19T12:10:35;18.50;;;10.63;;
29200;SDS011;16244;51.956;12.980;2023-03-19T12:13:20;14.60;;;9.00;;
29200;SDS011;16244;51.956;12.980;2023-03-19T12:16:00;21.83;;;9.40;;
29200;SDS011;16244;51.956;12.980;2023-03-19T12:18:40;14.43;;;9.30;;
29200;SDS011;16244;51.956;12.980;2023-03-19T12:21:33;10.63;;;9.33;;
29200;SDS011;16244;51.956;12.980;2023-03-19T12:24:13;11.47;;;8.80;;
29200;SDS011;16244;51.956;12.980;2023-03-19T12:26:53;11.07;;;8.50;;
29200;SDS011;16244;51.956;12.980;2023-03-19T12:29:30;9.30;;;8.33;;
29200;SDS011;16244;51.956;12.980;2023-03-19T12:32:09;15.37;;;9.10;;
29200;SDS011;16244;51.956;12.980;2023-03-19T12:34:44;12.70;;;9.93;;
29200;SDS011;16244;51.956;12.980;2023-03-19T12:37:16;9.27;;;8.43;;
29200;SDS011;16244;51.956;12.980;2023-03-19T12:39:52;11.60;;;10.40;;
29200;SDS011;16244;51.956;12.980;2023-03-19T12:42:32;11.10;;;9.90;;
29200;SDS011;16244;51.956;12.980;2023-03-19T12:45:03;10.83;;;8.80;;
29200;SDS011;16244;51.956;12.980;2023-03-19T12:47:40;13.90;;;7.60;;
29200;SDS011;16244;51.956;12.980;2023-03-19T12:50:10;9.40;;;7.97;;
29200;SDS011;16244;51.956;12.980;2023-03-19T12:52:42;15.90;;;9.40;;
29200;SDS011;16244;51.956;12.980;2023-03-19T12:55:13;14.07;;;10.03;;
29200;SDS011;16244;51.956;12.980;2023-03-19T12:57:47;10.27;;;8.90;;
29200;SDS011;16244;51.956;12.980;2023-03-19T13:00:18;9.70;;;7.73;;
29200;SDS011;16244;51.956;12.980;2023-03-19T13:02:54;14.93;;;8.40;;
29200;SDS011;16244;51.956;12.980;2023-03-19T13:05:28;10.50;;;9.17;;
29200;SDS011;16244;51.956;12.980;2023-03-19T13:08:00;23.20;;;14.30;;
29200;SDS011;16244;51.956;12.980;2023-03-19T13:10:31;14.80;;;9.90;;
29200;SDS011;16244;51.956;12.980;2023-03-19T13:13:00;13.07;;;9.20;;
29200;SDS011;16244;51.956;12.980;2023-03-19T13:15:42;10.03;;;7.90;;
29200;SDS011;16244;51.956;12.980;2023-03-19T13:18:16;10.27;;;8.57;;
29200;SDS011;16244;51.956;12.980;2023-03-19T13:20:58;9.40;;;8.40;;
29200;SDS011;16244;51.956;12.980;2023-03-19T13:23:42;9.17;;;7.13;;
29200;SDS011;16244;51.956;12.980;2023-03-19T13:26:12;8.93;;;7.83;;
29200;SDS011;16244;51.956;12.980;2023-03-19T13:28:53;10.17;;;7.03;;
29200;SDS011;16244;51.956;12.980;2023-03-19T13:31:26;11.20;;;8.93;;
29200;SDS011;16244;51.956;12.980;2023-03-19T13:33:59;12.30;;;8.90;;
29200;SDS011;16244;51.956;12.980;2023-03-19T13:36:28;13.60;;;8.43;;
29200;SDS011;16244;51.956;12.980;2023-03-19T13:38:57;11.40;;;8.17;;
29200;SDS011;16244;51.956;12.980;2023-03-19T13:44:33;12.20;;;7.83;;
29200;SDS011;16244;51.956;12.980;2023-03-19T13:50:21;14.63;;;7.83;;
29200;SDS011;16244;51.956;12.980;2023-03-19T13:52:52;9.97;;;8.10;;
29200;SDS011;16244;51.956;12.980;2023-03-19T13:55:47;11.53;;;8.00;;
29200;SDS011;16244;51.956;12.980;2023-03-19T13:58:19;18.13;;;8.53;;
29200;SDS011;16244;51.956;12.980;2023-03-19T14:01:11;9.50;;;8.13;;
29200;SDS011;16244;51.956;12.980;2023-03-19T14:04:05;8.27;;;7.27;;
29200;SDS011;16244;51.956;12.980;2023-03-19T14:06:46;18.87;;;9.30;;
29200;SDS011;16244;51.956;12.980;2023-03-19T14:09:28;9.10;;;8.27;;
29200;SDS011;16244;51.956;12.980;2023-03-19T14:14:55;10.87;;;8.27;;
29200;SDS011;16244;51.956;12.980;2023-03-19T14:17:29;11.87;;;8.23;;
29200;SDS011;16244;51.956;12.980;2023-03-19T14:20:03;9.57;;;8.63;;
29200;SDS011;16244;51.956;12.980;2023-03-19T14:22:54;12.10;;;9.10;;
29200;SDS011;16244;51.956;12.980;2023-03-19T14:28:34;11.10;;;8.60;;
29200;SDS011;16244;51.956;12.980;2023-03-19T14:31:13;11.00;;;8.63;;
29200;SDS011;16244;51.956;12.980;2023-03-19T14:33:48;10.10;;;8.73;;
29200;SDS011;16244;51.956;12.980;2023-03-19T14:36:19;9.13;;;8.43;;
29200;SDS011;16244;51.956;12.980;2023-03-19T14:38:49;11.87;;;8.40;;
29200;SDS011;16244;51.956;12.980;2023-03-19T14:41:19;10.33;;;8.80;;
29200;SDS011;16244;51.956;12.980;2023-03-19T14:43:53;17.70;;;10.20;;
29200;SDS011;16244;51.956;12.980;2023-03-19T14:46:41;10.60;;;9.50;;